createdAt,value
2023-01-19T00:01:35.988Z,8.67
2023-01-19T00:04:03.313Z,8.30
2023-01-19T00:06:31.641Z,8.61
2023-01-19T00:08:59.069Z,8.53
2023-01-19T00:11:26.308Z,8.32
2023-01-19T00:13:53.724Z,8.55
2023-01-19T00:16:23.370Z,8.71
2023-01-19T00:18:52.264Z,8.42
2023-01-19T00:21:20.112Z,8.73
2023-01-19T00:23:47.674Z,8.82
2023-01-19T00:26:19.098Z,9.06
2023-01-19T00:28:46.535Z,9.13
2023-01-19T00:31:13.836Z,9.09
2023-01-19T00:33:41.438Z,8.99
2023-01-19T00:36:09.343Z,8.60
2023-01-19T00:38:36.436Z,8.61
2023-01-19T00:41:03.596Z,8.69
2023-01-19T00:43:30.835Z,8.84
2023-01-19T00:45:58.078Z,9.02
2023-01-19T00:48:25.650Z,8.81
2023-01-19T00:50:53.018Z,8.56
2023-01-19T00:53:20.316Z,8.74
2023-01-19T00:55:47.609Z,8.55
2023-01-19T00:58:14.723Z,8.69
2023-01-19T01:00:41.895Z,8.96
2023-01-19T01:03:10.156Z,9.06
2023-01-19T01:05:41.423Z,9.01
2023-01-19T01:08:08.548Z,9.10
2023-01-19T01:10:35.951Z,9.21
2023-01-19T01:13:20.258Z,9.27
2023-01-19T01:15:54.495Z,9.08
2023-01-19T01:18:22.256Z,9.05
2023-01-19T01:20:49.957Z,9.17
2023-01-19T01:23:23.003Z,8.95
2023-01-19T01:25:50.448Z,9.14
2023-01-19T01:28:17.730Z,8.89
2023-01-19T01:30:45.001Z,9.12
2023-01-19T01:33:12.405Z,8.64
2023-01-19T01:35:39.933Z,8.43
2023-01-19T01:38:07.852Z,8.61
2023-01-19T01:40:35.252Z,8.76
2023-01-19T01:43:03.659Z,8.30
2023-01-19T01:45:36.580Z,8.44
2023-01-19T01:48:12.421Z,8.56
2023-01-19T01:51:06.753Z,8.41
2023-01-19T01:53:36.012Z,8.58
2023-01-19T01:56:08.060Z,8.82
2023-01-19T01:58:37.926Z,8.22
2023-01-19T02:01:25.665Z,8.34
2023-01-19T02:03:57.560Z,8.50
2023-01-19T02:06:25.701Z,8.18
2023-01-19T02:09:29.098Z,8.12
2023-01-19T02:12:15.924Z,8.17
2023-01-19T02:14:43.180Z,8.13
2023-01-19T02:17:10.530Z,8.31
2023-01-19T02:19:43.550Z,8.41
2023-01-19T02:22:20.582Z,8.22
2023-01-19T02:24:49.971Z,8.03
2023-01-19T02:27:17.933Z,8.15
2023-01-19T02:29:45.339Z,8.15
2023-01-19T02:32:13.389Z,8.20
2023-01-19T02:34:40.723Z,8.32
2023-01-19T02:37:12.350Z,8.04
2023-01-19T02:39:45.836Z,8.13
2023-01-19T02:42:15.687Z,8.24
2023-01-19T02:44:46.390Z,8.02
2023-01-19T02:47:14.690Z,8.18
2023-01-19T02:49:41.897Z,8.09
2023-01-19T02:52:17.886Z,8.13
2023-01-19T02:54:56.560Z,7.83
2023-01-19T02:57:44.315Z,7.85
2023-01-19T03:00:30.222Z,7.60
2023-01-19T03:03:17.507Z,7.71
2023-01-19T03:06:09.566Z,7.83
2023-01-19T03:08:42.545Z,7.35
2023-01-19T03:11:12.930Z,7.45
2023-01-19T03:14:02.081Z,7.55
2023-01-19T03:16:38.620Z,7.82
2023-01-19T03:19:22.292Z,7.84
2023-01-19T03:21:54.813Z,7.73
2023-01-19T03:24:25.118Z,7.81
2023-01-19T03:26:58.984Z,7.56
2023-01-19T03:29:35.196Z,7.70
2023-01-19T03:32:09.948Z,7.67
2023-01-19T03:34:39.649Z,7.91
2023-01-19T03:37:10.239Z,7.88
2023-01-19T03:39:37.812Z,7.92
2023-01-19T03:42:14.150Z,7.79
2023-01-19T03:44:45.483Z,7.79
2023-01-19T03:47:14.727Z,7.87
2023-01-19T03:49:45.425Z,7.96
2023-01-19T03:52:13.056Z,7.75
2023-01-19T03:54:41.270Z,7.79
2023-01-19T03:57:08.642Z,7.91
2023-01-19T03:59:36.223Z,7.70
2023-01-19T04:02:06.307Z,7.64
2023-01-19T04:04:33.625Z,7.56
2023-01-19T04:07:01.507Z,7.37
2023-01-19T04:09:28.756Z,7.53
2023-01-19T04:11:57.315Z,7.40
2023-01-19T04:14:24.815Z,7.45
2023-01-19T04:16:52.266Z,7.40
2023-01-19T04:19:19.493Z,7.46
2023-01-19T04:21:50.853Z,7.51
2023-01-19T04:24:18.613Z,7.57
2023-01-19T04:26:45.769Z,7.64
2023-01-19T04:29:14.207Z,7.39
2023-01-19T04:31:41.546Z,7.74
2023-01-19T04:34:08.884Z,7.77
2023-01-19T04:36:36.090Z,7.67
2023-01-19T04:39:03.373Z,7.51
2023-01-19T04:41:31.229Z,7.25
2023-01-19T04:43:58.496Z,7.43
2023-01-19T04:46:25.691Z,7.51
2023-01-19T04:48:52.909Z,7.41
2023-01-19T04:51:20.435Z,7.24
2023-01-19T04:53:47.567Z,7.31
2023-01-19T04:56:14.741Z,7.39
2023-01-19T04:58:42.029Z,7.46
2023-01-19T05:01:10.111Z,7.52
2023-01-19T05:03:37.417Z,7.53
2023-01-19T05:06:04.986Z,7.57
2023-01-19T05:08:32.319Z,7.59
2023-01-19T05:11:00.109Z,7.61
2023-01-19T05:13:27.301Z,7.45
2023-01-19T05:15:54.443Z,7.24
2023-01-19T05:18:21.646Z,7.27
2023-01-19T05:20:48.965Z,7.43
2023-01-19T05:23:16.266Z,7.37
2023-01-19T05:25:44.620Z,7.51
2023-01-19T05:28:12.059Z,7.53
2023-01-19T05:30:39.485Z,7.55
2023-01-19T05:33:06.773Z,7.44
2023-01-19T05:35:36.308Z,7.50
2023-01-19T05:38:04.617Z,7.53
2023-01-19T05:40:32.208Z,7.06
2023-01-19T05:43:01.355Z,7.31
2023-01-19T05:45:28.919Z,7.34
2023-01-19T05:47:56.249Z,6.90
2023-01-19T05:50:23.740Z,7.06
2023-01-19T05:52:53.568Z,7.21
2023-01-19T05:55:21.943Z,6.89
2023-01-19T05:57:49.478Z,6.86
2023-01-19T06:00:17.139Z,7.24
2023-01-19T06:02:44.619Z,6.45
2023-01-19T06:05:11.907Z,6.66
2023-01-19T06:07:39.357Z,6.79
2023-01-19T06:10:07.149Z,6.83
2023-01-19T06:12:34.862Z,7.01
2023-01-19T06:15:02.158Z,7.08
2023-01-19T06:17:29.294Z,7.05
2023-01-19T06:19:56.503Z,7.13
2023-01-19T06:22:23.798Z,7.12
2023-01-19T06:24:51.267Z,7.05
2023-01-19T06:27:18.513Z,7.33
2023-01-19T06:29:45.711Z,7.43
2023-01-19T06:32:12.946Z,7.97
2023-01-19T06:34:43.772Z,7.93
2023-01-19T06:37:11.881Z,8.13
2023-01-19T06:39:41.180Z,8.12
2023-01-19T06:42:09.319Z,7.44
2023-01-19T06:44:36.781Z,7.39
2023-01-19T06:47:14.884Z,7.45
2023-01-19T06:49:44.067Z,7.88
2023-01-19T06:52:14.203Z,7.98
2023-01-19T06:54:41.585Z,8.04
2023-01-19T06:57:09.237Z,8.06
2023-01-19T06:59:36.395Z,7.97
2023-01-19T07:02:26.280Z,8.20
2023-01-19T07:04:54.240Z,7.96
2023-01-19T07:07:21.428Z,8.02
2023-01-19T07:09:48.667Z,8.16
2023-01-19T07:12:39.800Z,8.12
2023-01-19T07:15:08.055Z,8.28
2023-01-19T07:17:35.338Z,8.33
2023-01-19T07:20:03.203Z,8.21
2023-01-19T07:22:30.478Z,8.22
2023-01-19T07:24:58.927Z,8.76
2023-01-19T07:27:28.213Z,8.66
2023-01-19T07:29:55.416Z,8.86
2023-01-19T07:32:22.641Z,8.78
2023-01-19T07:34:49.721Z,8.80
2023-01-19T07:37:16.900Z,8.55
2023-01-19T07:39:43.974Z,8.46
2023-01-19T07:42:11.275Z,8.70
2023-01-19T07:44:38.473Z,8.80
2023-01-19T07:47:07.726Z,8.85
2023-01-19T07:49:35.614Z,9.07
2023-01-19T07:52:02.856Z,9.18
2023-01-19T07:54:30.136Z,9.12
2023-01-19T07:56:57.374Z,9.04
2023-01-19T07:59:24.483Z,9.24
2023-01-19T08:01:53.507Z,9.17
2023-01-19T08:04:20.879Z,9.21
2023-01-19T08:06:48.386Z,9.27
2023-01-19T08:09:15.592Z,9.35
2023-01-19T08:11:42.907Z,9.47
2023-01-19T08:14:10.380Z,9.54
2023-01-19T08:16:37.919Z,9.67
2023-01-19T08:19:05.084Z,9.83
2023-01-19T08:21:33.573Z,9.81
2023-01-19T08:24:00.820Z,9.93
2023-01-19T08:26:31.173Z,10.00
2023-01-19T08:29:02.455Z,10.21
2023-01-19T08:31:30.368Z,10.36
2023-01-19T08:33:57.740Z,10.46
2023-01-19T08:36:25.366Z,10.56
2023-01-19T08:38:53.035Z,10.56
2023-01-19T08:41:20.210Z,10.70
2023-01-19T08:43:47.752Z,10.99
2023-01-19T08:46:17.754Z,11.13
2023-01-19T08:48:51.540Z,11.17
2023-01-19T08:51:19.197Z,11.14
2023-01-19T08:53:46.761Z,11.26
2023-01-19T08:56:14.721Z,11.38
2023-01-19T08:58:43.928Z,11.35
2023-01-19T09:01:14.965Z,11.40
2023-01-19T09:03:42.493Z,11.44
2023-01-19T09:06:11.451Z,11.59
2023-01-19T09:08:38.708Z,11.50
2023-01-19T09:11:11.474Z,11.66
2023-01-19T09:13:40.109Z,11.54
2023-01-19T09:16:08.852Z,11.69
2023-01-19T09:18:36.146Z,11.75
2023-01-19T09:21:04.234Z,11.70
2023-01-19T09:23:31.632Z,11.65
2023-01-19T09:26:01.720Z,11.79
2023-01-19T09:28:29.868Z,11.74
2023-01-19T09:30:57.547Z,11.89
2023-01-19T09:33:25.064Z,11.92
2023-01-19T09:35:52.705Z,12.00
2023-01-19T09:38:22.572Z,11.85
2023-01-19T09:40:53.385Z,11.99
2023-01-19T09:43:26.499Z,11.95
2023-01-19T09:45:59.702Z,12.04
2023-01-19T09:48:27.050Z,12.08
2023-01-19T09:50:57.629Z,12.12
2023-01-19T09:53:51.181Z,12.19
2023-01-19T09:56:21.206Z,12.24
2023-01-19T09:58:51.236Z,12.18
2023-01-19T10:01:47.542Z,12.25
2023-01-19T10:04:31.578Z,12.31
2023-01-19T10:07:19.065Z,12.23
2023-01-19T10:10:04.977Z,12.70
2023-01-19T10:12:34.987Z,12.89
2023-01-19T10:15:25.833Z,12.99
2023-01-19T10:18:23.553Z,13.08
2023-01-19T10:20:56.014Z,12.97
2023-01-19T10:23:29.284Z,13.09
2023-01-19T10:25:59.692Z,13.12
2023-01-19T10:28:28.196Z,12.99
2023-01-19T10:30:56.374Z,13.09
2023-01-19T10:33:24.068Z,12.83
2023-01-19T10:35:51.388Z,13.12
2023-01-19T10:38:22.451Z,13.22
2023-01-19T10:41:01.079Z,13.20
2023-01-19T10:43:34.617Z,13.30
2023-01-19T10:46:17.427Z,13.37
2023-01-19T10:48:48.055Z,13.53
2023-01-19T10:51:15.482Z,13.42
2023-01-19T10:54:03.787Z,13.64
2023-01-19T10:56:38.716Z,13.77
2023-01-19T10:59:07.498Z,13.84
2023-01-19T11:01:37.599Z,13.87
2023-01-19T11:04:22.924Z,13.91
2023-01-19T11:06:50.213Z,13.89
2023-01-19T11:09:19.195Z,13.94
2023-01-19T11:11:52.516Z,13.94
2023-01-19T11:14:24.721Z,14.04
2023-01-19T11:16:55.289Z,14.02
2023-01-19T11:19:28.723Z,13.93
2023-01-19T11:22:14.596Z,14.04
2023-01-19T11:24:44.645Z,14.23
2023-01-19T11:27:17.372Z,14.37
2023-01-19T11:30:00.195Z,14.50
2023-01-19T11:32:28.299Z,14.69
2023-01-19T11:34:55.480Z,14.87
2023-01-19T11:37:29.342Z,14.91
2023-01-19T11:39:59.454Z,15.11
2023-01-19T11:42:30.564Z,15.28
2023-01-19T11:45:14.841Z,15.48
2023-01-19T11:47:50.514Z,15.47
2023-01-19T11:50:33.980Z,15.38
2023-01-19T11:53:04.168Z,15.37
2023-01-19T11:55:43.803Z,15.32
2023-01-19T11:58:18.846Z,15.38
2023-01-19T12:00:52.599Z,15.47
2023-01-19T12:03:32.713Z,15.39
2023-01-19T12:06:12.275Z,15.47
2023-01-19T12:08:48.304Z,15.46
2023-01-19T12:11:20.313Z,15.38
2023-01-19T12:13:48.965Z,15.26
2023-01-19T12:16:26.551Z,15.26
2023-01-19T12:19:05.401Z,14.92
2023-01-19T12:21:32.556Z,15.20
2023-01-19T12:24:17.313Z,15.17
2023-01-19T12:26:56.404Z,15.20
2023-01-19T12:29:28.270Z,15.21
2023-01-19T12:32:13.691Z,15.22
2023-01-19T12:34:48.624Z,15.17
2023-01-19T12:37:28.849Z,15.20
2023-01-19T12:40:02.898Z,15.00
2023-01-19T12:42:30.554Z,15.17
2023-01-19T12:45:13.349Z,15.18
2023-01-19T12:47:53.118Z,15.02
2023-01-19T12:50:24.237Z,14.90
2023-01-19T12:52:58.704Z,14.70
2023-01-19T12:55:31.227Z,14.58
2023-01-19T12:58:07.484Z,14.53
2023-01-19T13:00:37.543Z,14.50
2023-01-19T13:03:18.170Z,14.20
2023-01-19T13:05:45.441Z,14.45
2023-01-19T13:08:17.895Z,14.31
2023-01-19T13:11:00.364Z,14.27
2023-01-19T13:13:42.477Z,14.34
2023-01-19T13:16:18.966Z,14.30
2023-01-19T13:19:07.604Z,14.24
2023-01-19T13:21:45.010Z,14.25
2023-01-19T13:24:15.171Z,14.23
2023-01-19T13:26:55.666Z,14.22
2023-01-19T13:29:43.101Z,14.10
2023-01-19T13:32:17.732Z,13.89
2023-01-19T13:35:02.077Z,13.93
2023-01-19T13:37:44.760Z,13.85
2023-01-19T13:40:38.468Z,13.81
2023-01-19T13:43:16.187Z,13.80
2023-01-19T13:45:50.699Z,13.69
2023-01-19T13:48:22.665Z,13.66
2023-01-19T13:51:01.734Z,13.60
2023-01-19T13:53:29.751Z,13.54
2023-01-19T13:56:15.986Z,13.47
2023-01-19T13:58:43.606Z,13.32
2023-01-19T14:01:22.122Z,13.09
2023-01-19T14:03:52.511Z,13.10
2023-01-19T14:06:43.969Z,12.90
2023-01-19T14:09:18.836Z,13.06
2023-01-19T14:12:04.600Z,12.92
2023-01-19T14:14:32.134Z,12.87
2023-01-19T14:16:59.759Z,12.68
2023-01-19T14:19:27.138Z,12.28
2023-01-19T14:22:03.745Z,12.58
2023-01-19T14:24:33.354Z,12.56
2023-01-19T14:27:22.848Z,12.29
2023-01-19T14:29:54.886Z,12.42
2023-01-19T14:32:24.816Z,12.29
2023-01-19T14:35:04.612Z,12.24
2023-01-19T14:37:36.226Z,12.08
2023-01-19T14:40:20.542Z,12.00
2023-01-19T14:43:03.305Z,12.05
2023-01-19T14:45:39.488Z,12.13
2023-01-19T14:48:15.825Z,12.24
2023-01-19T14:51:02.381Z,11.95
2023-01-19T14:53:36.924Z,11.91
2023-01-19T14:56:07.108Z,11.88
2023-01-19T14:58:35.762Z,11.74
2023-01-19T15:01:03.927Z,11.77
2023-01-19T15:03:44.701Z,11.51
2023-01-19T15:06:21.485Z,11.77
2023-01-19T15:08:50.315Z,11.76
2023-01-19T15:11:30.153Z,11.71
2023-01-19T15:13:59.211Z,11.65
2023-01-19T15:16:28.065Z,11.70
2023-01-19T15:18:56.072Z,11.79
2023-01-19T15:21:26.687Z,11.87
2023-01-19T15:23:54.958Z,11.84
2023-01-19T15:26:24.863Z,11.74
2023-01-19T15:28:52.372Z,11.55
2023-01-19T15:31:23.136Z,11.72
2023-01-19T15:33:50.681Z,11.72
2023-01-19T15:36:21.188Z,11.77
2023-01-19T15:38:51.116Z,11.71
2023-01-19T15:41:33.882Z,11.87
2023-01-19T15:44:01.368Z,11.82
2023-01-19T15:46:28.799Z,11.97
2023-01-19T15:48:56.051Z,12.00
2023-01-19T15:51:25.942Z,11.99
2023-01-19T15:53:53.726Z,12.04
2023-01-19T15:56:27.093Z,12.01
2023-01-19T15:58:55.176Z,11.89
2023-01-19T16:01:30.866Z,11.91
2023-01-19T16:04:05.948Z,11.63
2023-01-19T16:06:34.366Z,11.79
2023-01-19T16:09:04.011Z,11.77
2023-01-19T16:11:33.699Z,11.61
2023-01-19T16:14:01.585Z,11.67
2023-01-19T16:16:28.947Z,11.38
2023-01-19T16:18:56.588Z,11.57
2023-01-19T16:21:24.095Z,11.40
2023-01-19T16:23:51.877Z,11.43
2023-01-19T16:26:34.617Z,11.33
2023-01-19T16:29:09.050Z,11.49
2023-01-19T16:31:41.017Z,11.44
2023-01-19T16:34:09.288Z,11.48
2023-01-19T16:36:38.271Z,11.47
2023-01-19T16:39:08.417Z,11.50
2023-01-19T16:41:35.795Z,11.66
2023-01-19T16:44:03.174Z,11.56
2023-01-19T16:46:35.696Z,11.80
2023-01-19T16:49:16.246Z,11.50
2023-01-19T16:51:43.628Z,11.54
2023-01-19T16:54:15.796Z,11.58
2023-01-19T16:56:43.503Z,11.60
2023-01-19T16:59:12.868Z,11.59
2023-01-19T17:01:40.809Z,11.59
2023-01-19T17:04:08.232Z,11.43
2023-01-19T17:06:35.551Z,11.40
2023-01-19T17:09:03.609Z,11.35
2023-01-19T17:11:33.086Z,11.34
2023-01-19T17:14:23.079Z,11.45
2023-01-19T17:16:50.455Z,11.49
2023-01-19T17:19:20.240Z,11.58
2023-01-19T17:21:51.590Z,11.63
2023-01-19T17:24:18.952Z,11.56
2023-01-19T17:26:48.695Z,11.63
2023-01-19T17:29:17.230Z,11.43
2023-01-19T17:31:45.979Z,11.29
2023-01-19T17:34:13.305Z,11.35
2023-01-19T17:36:41.228Z,11.35
2023-01-19T17:39:11.676Z,11.36
2023-01-19T17:41:39.004Z,11.33
2023-01-19T17:44:06.657Z,11.23
2023-01-19T17:46:38.555Z,11.22
2023-01-19T17:49:07.342Z,11.24
2023-01-19T17:51:35.134Z,11.25
2023-01-19T17:54:02.627Z,11.28
2023-01-19T17:56:33.591Z,11.17
2023-01-19T17:59:00.712Z,11.09
2023-01-19T18:01:33.953Z,10.98
2023-01-19T18:04:02.654Z,10.83
2023-01-19T18:06:30.041Z,10.80
2023-01-19T18:08:58.570Z,10.75
2023-01-19T18:11:27.739Z,10.78
2023-01-19T18:13:55.051Z,10.82
2023-01-19T18:16:27.556Z,10.82
2023-01-19T18:18:57.077Z,10.89
2023-01-19T18:21:27.591Z,11.02
2023-01-19T18:24:03.868Z,11.10
2023-01-19T18:26:32.434Z,10.75
2023-01-19T18:28:59.816Z,11.09
2023-01-19T18:31:27.949Z,11.27
2023-01-19T18:33:55.777Z,11.24
2023-01-19T18:36:23.395Z,11.39
2023-01-19T18:38:50.829Z,11.43
2023-01-19T18:41:21.191Z,11.41
2023-01-19T18:43:48.789Z,11.53
2023-01-19T18:46:16.492Z,11.46
2023-01-19T18:48:44.155Z,11.59
2023-01-19T18:51:13.614Z,11.56
2023-01-19T18:53:41.246Z,11.55
2023-01-19T18:56:11.796Z,11.46
2023-01-19T18:58:39.440Z,11.40
2023-01-19T19:01:18.983Z,11.36
2023-01-19T19:03:46.264Z,11.39
2023-01-19T19:06:14.896Z,11.32
2023-01-19T19:08:43.364Z,11.16
2023-01-19T19:11:12.104Z,11.26
2023-01-19T19:13:41.374Z,11.34
2023-01-19T19:16:10.954Z,11.29
2023-01-19T19:18:39.585Z,11.32
2023-01-19T19:21:12.270Z,11.37
2023-01-19T19:23:39.617Z,11.41
2023-01-19T19:26:12.280Z,11.38
2023-01-19T19:28:40.728Z,11.48
2023-01-19T19:31:09.311Z,11.50
2023-01-19T19:33:38.449Z,11.50
2023-01-19T19:36:07.706Z,11.46
2023-01-19T19:38:36.931Z,11.32
2023-01-19T19:41:09.925Z,11.12
2023-01-19T19:43:38.041Z,11.34
2023-01-19T19:46:07.988Z,11.36
2023-01-19T19:48:39.096Z,11.39
2023-01-19T19:51:18.517Z,11.42
2023-01-19T19:53:48.939Z,11.47
2023-01-19T19:56:21.269Z,11.50
2023-01-19T19:58:50.633Z,11.50
2023-01-19T20:01:20.942Z,11.48
2023-01-19T20:03:48.850Z,11.42
2023-01-19T20:06:21.002Z,11.38
2023-01-19T20:08:49.178Z,11.38
2023-01-19T20:11:18.794Z,11.40
2023-01-19T20:13:47.782Z,11.43
2023-01-19T20:16:17.115Z,11.44
2023-01-19T20:18:48.711Z,11.37
2023-01-19T20:21:22.034Z,11.45
2023-01-19T20:23:51.234Z,11.45
2023-01-19T20:26:21.127Z,11.36
2023-01-19T20:28:48.940Z,11.40
2023-01-19T20:31:21.416Z,11.34
2023-01-19T20:33:50.769Z,11.31
2023-01-19T20:36:18.822Z,11.40
2023-01-19T20:38:45.968Z,11.33
2023-01-19T20:41:13.540Z,11.31
2023-01-19T20:43:40.852Z,11.33
2023-01-19T20:46:08.025Z,11.37
2023-01-19T20:48:35.837Z,11.38
2023-01-19T20:51:06.261Z,11.33
2023-01-19T20:53:33.932Z,11.31
2023-01-19T20:56:11.889Z,11.37
2023-01-19T20:58:39.878Z,11.36
2023-01-19T21:01:12.645Z,11.32
2023-01-19T21:03:40.552Z,11.35
2023-01-19T21:06:08.652Z,11.34
2023-01-19T21:08:36.847Z,11.24
2023-01-19T21:11:05.508Z,11.19
2023-01-19T21:13:33.211Z,11.31
2023-01-19T21:16:00.479Z,11.37
2023-01-19T21:18:28.086Z,11.25
2023-01-19T21:20:57.578Z,11.41
2023-01-19T21:23:26.656Z,11.29
2023-01-19T21:25:59.125Z,11.22
2023-01-19T21:28:27.648Z,11.25
2023-01-19T21:30:55.997Z,11.24
2023-01-19T21:33:24.052Z,11.26
2023-01-19T21:35:55.941Z,11.36
2023-01-19T21:38:25.426Z,11.37
2023-01-19T21:40:53.059Z,11.33
2023-01-19T21:43:20.428Z,11.36
2023-01-19T21:45:48.758Z,11.37
2023-01-19T21:48:17.164Z,11.31
2023-01-19T21:50:44.682Z,11.06
2023-01-19T21:53:12.265Z,11.08
2023-01-19T21:55:45.282Z,10.92
2023-01-19T21:58:12.555Z,10.84
2023-01-19T22:00:39.742Z,10.82
2023-01-19T22:03:07.720Z,10.78
2023-01-19T22:05:36.901Z,10.66
2023-01-19T22:08:06.401Z,10.70
2023-01-19T22:10:37.703Z,10.77
2023-01-19T22:13:06.823Z,10.80
2023-01-19T22:15:34.107Z,10.74
2023-01-19T22:18:01.576Z,10.80
2023-01-19T22:20:29.044Z,10.74
2023-01-19T22:22:56.844Z,10.85
2023-01-19T22:25:27.969Z,10.77
2023-01-19T22:27:56.379Z,10.67
2023-01-19T22:30:23.689Z,10.71
2023-01-19T22:32:50.973Z,10.74
2023-01-19T22:35:18.136Z,10.72
2023-01-19T22:37:45.399Z,10.65
2023-01-19T22:40:12.881Z,10.78
2023-01-19T22:42:40.163Z,10.79
2023-01-19T22:45:08.111Z,10.72
2023-01-19T22:47:35.399Z,10.75
2023-01-19T22:50:02.579Z,10.71
2023-01-19T22:52:30.338Z,10.73
2023-01-19T22:54:58.415Z,10.72
2023-01-19T22:57:26.023Z,10.80
2023-01-19T22:59:53.148Z,10.83
2023-01-19T23:02:21.019Z,10.87
2023-01-19T23:04:48.495Z,10.89
2023-01-19T23:07:15.819Z,10.97
2023-01-19T23:09:43.077Z,10.93
2023-01-19T23:12:10.248Z,10.98
2023-01-19T23:14:37.550Z,11.07
2023-01-19T23:17:04.717Z,11.07
2023-01-19T23:19:32.054Z,11.10
2023-01-19T23:21:59.288Z,11.05
2023-01-19T23:24:26.811Z,11.03
2023-01-19T23:26:54.105Z,11.12
2023-01-19T23:29:21.299Z,11.01
2023-01-19T23:31:53.597Z,10.98
2023-01-19T23:34:20.904Z,10.94
2023-01-19T23:36:48.193Z,10.96
2023-01-19T23:39:20.823Z,10.94
2023-01-19T23:41:48.875Z,10.95
2023-01-19T23:44:17.354Z,10.92
2023-01-19T23:46:45.052Z,10.78
2023-01-19T23:49:13.351Z,10.75
2023-01-19T23:51:41.439Z,10.73
2023-01-19T23:54:08.889Z,10.71
2023-01-19T23:56:37.598Z,10.50
2023-01-19T23:59:10.496Z,10.59
